Stations météo

Publicité
Kew Gardens, Grande-Bretagne (99095): Température de l'air & dewpoint: 21.10.2020 18:00:00 - 27.10.2020 18:00:00 (GMT)Kew Gardens, Grande-Bretagne (99095): Température de l'air -20cm & Température de l'air -100cm: 21.10.2020 18:00:00 - 27.10.2020 18:00:00 (GMT)Kew Gardens, Grande-Bretagne (99095): Vitesse du vent & gusts: 21.10.2020 18:00:00 - 27.10.2020 18:00:00 (GMT)Kew Gardens, Grande-Bretagne (99095): Direction du vent: 21.10.2020 18:00:00 - 27.10.2020 18:00:00 (GMT)Kew Gardens, Grande-Bretagne (99095): Quantités de précipitations: 21.10.2020 18:00:00 - 27.10.2020 18:00:00 (GMT)
Date & Time tt [°C] td [°C] tt -20cm [°C] tt -100cm [°C] ff [km/h] ff [knt] fx [km/h] fx [knt] dd rr [mm]
27.10.2020 18:00:00 - - - - - - - - - -
27.10.2020 17:00:00 12,3 9,6 - - 11 6 - - W 0,0
27.10.2020 16:00:00 12,7 10,9 - - 16 9 - - W 1,6
27.10.2020 15:00:00 13,6 12,7 - - 11 6 - - SSW 0,2
27.10.2020 14:00:00 12,7 12,0 - - 11 6 - - S 0,2
27.10.2020 13:00:00 12,2 11,3 - - 18 10 - - S 0,2
27.10.2020 12:00:00 11,8 10,6 - - 15 8 - - S 0,0
27.10.2020 11:00:00 11,0 10,3 - - 13 7 - - S 0,2
27.10.2020 10:00:00 10,0 9,4 - - 9 5 - - S 0,2
27.10.2020 09:00:00 9,3 9,0 10,5 14,2 8 4 - - S 0,4
27.10.2020 08:00:00 7,7 7,6 - - 4 2 - - SSE 0,4
27.10.2020 07:00:00 7,4 7,1 - - 4 2 - - SSW 0,0
27.10.2020 06:00:00 7,1 7,1 - - 5 3 - - SW 0,0
27.10.2020 05:00:00 6,0 6,0 - - 4 2 - - SW 0,0
27.10.2020 04:00:00 5,3 5,2 - - 4 2 - - SSW 0,0
27.10.2020 03:00:00 4,2 4,0 - - 5 3 - - SSW 0,0
27.10.2020 02:00:00 4,8 4,6 - - 5 3 - - SW 0,0
27.10.2020 01:00:00 5,7 5,2 - - 5 3 - - SW 0,0
27.10.2020 00:00:00 6,3 5,9 - - 8 4 - - SW 0,0
26.10.2020 23:00:00 6,7 6,2 - - 5 3 - - SW 0,0
26.10.2020 22:00:00 6,7 5,9 - - 5 3 - - SSW 0,0
26.10.2020 21:00:00 7,0 6,2 - - 5 3 - - SW 0,0
26.10.2020 20:00:00 6,6 5,8 - - 8 4 - - SW 0,0
26.10.2020 19:00:00 7,3 5,9 - - 5 3 - - SW 0,0
26.10.2020 18:00:00 9,3 6,3 - - 5 3 - - WSW 0,0
26.10.2020 17:00:00 11,3 6,3 - - 9 5 - - W 0,0
26.10.2020 16:00:00 12,4 6,9 - - 8 4 - - W 0,0
26.10.2020 15:00:00 12,5 7,9 - - 9 5 - - W 0,0
26.10.2020 14:00:00 13,4 8,4 - - 9 5 - - W 0,0
26.10.2020 13:00:00 12,8 7,7 - - 11 6 - - WSW 0,0
26.10.2020 12:00:00 12,7 8,6 - - 9 5 - - WSW 0,0
26.10.2020 11:00:00 11,5 7,9 - - 13 7 - - WSW 0,0
26.10.2020 10:00:00 10,2 7,4 - - 9 5 - - SW 0,0
26.10.2020 09:00:00 9,7 7,0 11,2 14,5 9 5 - - WSW 0,0
26.10.2020 08:00:00 7,6 6,4 - - 8 4 - - SW 0,0
26.10.2020 07:00:00 6,1 5,6 - - 8 4 - - SSW 0,2
26.10.2020 06:00:00 6,5 6,1 - - 5 3 - - SW 0,0
26.10.2020 05:00:00 5,6 5,3 - - 5 3 - - SSW 0,0
26.10.2020 04:00:00 6,0 5,8 - - 5 3 - - SSW 0,0
26.10.2020 03:00:00 5,7 5,4 - - 5 3 - - SSW 0,0
26.10.2020 02:00:00 6,2 5,7 - - 5 3 - - SSW 0,0
26.10.2020 01:00:00 6,7 6,4 - - 5 3 - - S 0,0
26.10.2020 00:00:00 6,1 5,7 - - 5 3 - - S 0,0
25.10.2020 23:00:00 7,0 6,4 - - 5 3 - - S 0,0
25.10.2020 22:00:00 7,3 6,7 - - 5 3 - - S 0,0
25.10.2020 21:00:00 6,9 6,1 - - 5 3 - - S 0,0
25.10.2020 20:00:00 8,2 6,7 - - 5 3 - - SSW 0,2
25.10.2020 19:00:00 8,9 7,2 - - - - - - - 0,0
25.10.2020 18:00:00 9,0 7,4 - - 8 4 - - S 0,2
25.10.2020 17:00:00 10,4 7,4 - - 8 4 - - SSW 0,0
25.10.2020 16:00:00 11,0 7,5 - - 9 5 - - S 0,0
25.10.2020 15:00:00 12,1 7,0 - - 11 6 - - S 0,0
25.10.2020 14:00:00 12,8 8,6 - - 9 5 - - S 0,0
25.10.2020 13:00:00 11,7 7,3 - - 8 4 - - SW 0,0
25.10.2020 12:00:00 11,5 7,7 - - 11 6 - - S 0,0
25.10.2020 11:00:00 9,8 8,2 - - 8 4 - - S 0,8
25.10.2020 10:00:00 10,2 8,3 - - 9 5 - - SSW 0,0
25.10.2020 09:00:00 9,6 8,4 12,2 14,7 8 4 - - SSW 0,0
25.10.2020 08:00:00 8,9 7,6 - - 8 4 - - SSW 0,2
25.10.2020 07:00:00 8,6 8,2 - - 9 5 - - SSW 0,2
25.10.2020 06:00:00 6,4 5,9 - - 5 3 - - S 0,0
25.10.2020 05:00:00 8,0 7,2 - - 8 4 - - SSW 0,6
25.10.2020 04:00:00 7,2 6,9 - - 5 3 - - SSW 0,0
25.10.2020 03:00:00 8,1 7,3 - - 5 3 - - S 0,0
25.10.2020 02:00:00 9,2 8,3 - - 8 4 - - SW 0,0
25.10.2020 01:00:00 10,4 9,8 - - 8 4 - - SW 0,4
25.10.2020 00:00:00 - - - - - - - - - -
24.10.2020 23:00:00 10,7 9,9 - - 8 4 - - SSW 0,0
24.10.2020 22:00:00 11,1 10,1 - - 8 4 - - SSW 2,2
24.10.2020 21:00:00 12,8 11,9 - - 13 7 - - SSW 1,6
24.10.2020 20:00:00 13,3 12,2 - - 15 8 - - S 1,2
24.10.2020 19:00:00 14,1 12,8 - - 15 8 48 26 SW 4,0
24.10.2020 18:00:00 15,0 13,7 - - 18 10 57 31 SSW 0,8
24.10.2020 17:00:00 15,0 13,5 - - 15 8 48 26 S 0,2
24.10.2020 16:00:00 16,1 12,4 - - 21 11 46 25 SSW 0,0
24.10.2020 15:00:00 15,5 13,3 - - 21 11 48 26 SSW 0,0
24.10.2020 14:00:00 14,7 13,5 - - 18 10 - - S 0,2
24.10.2020 13:00:00 15,1 12,1 - - 11 6 - - S 0,0
24.10.2020 12:00:00 14,9 11,7 - - 18 10 - - S -
24.10.2020 11:00:00 14,8 11,3 - - 16 9 - - SSW 0,0
24.10.2020 10:00:00 14,3 11,5 - - 15 8 - - SSW 0,0
24.10.2020 09:00:00 13,1 10,7 12,2 14,7 15 8 - - SSW 0,0
24.10.2020 08:00:00 12,2 9,5 - - 8 4 - - SSW 0,0
24.10.2020 07:00:00 11,3 8,5 - - 9 5 - - S 0,0
24.10.2020 06:00:00 10,2 8,5 - - 9 5 - - SSW 0,0
24.10.2020 05:00:00 9,5 8,3 - - 8 4 - - S 0,0
24.10.2020 04:00:00 9,2 7,8 - - 5 3 - - S 0,0
24.10.2020 03:00:00 8,7 8,1 - - 8 4 - - S 0,0
24.10.2020 02:00:00 6,3 6,2 - - 4 2 - - SW 0,0
24.10.2020 01:00:00 5,4 4,9 - - 4 2 - - SSW 0,0
24.10.2020 00:00:00 5,9 5,1 - - 4 2 - - S 0,0
23.10.2020 23:00:00 7,2 6,3 - - 4 2 - - SW 0,0
23.10.2020 22:00:00 7,1 6,0 - - 5 3 - - SW 0,0
23.10.2020 21:00:00 9,0 6,5 - - 5 3 - - SW 0,0
23.10.2020 20:00:00 10,9 5,8 - - 11 6 - - W 0,0
23.10.2020 19:00:00 12,0 9,0 - - 5 3 - - WSW 0,0
23.10.2020 18:00:00 12,4 9,6 - - 8 4 - - SW 0,0
23.10.2020 17:00:00 12,6 10,0 - - 8 4 - - WSW 0,0
23.10.2020 16:00:00 13,8 9,8 - - 9 5 - - W 0,0
23.10.2020 15:00:00 14,9 9,1 - - 13 7 - - WSW 0,0
23.10.2020 14:00:00 15,9 10,3 - - 11 6 - - WSW 0,0
23.10.2020 13:00:00 15,6 10,8 - - 11 6 - - SW 0,0
23.10.2020 12:00:00 15,1 11,5 - - 9 5 - - SW 0,0
23.10.2020 11:00:00 14,9 11,9 - - 11 6 - - SW 0,0
23.10.2020 10:00:00 15,7 11,9 - - 13 7 - - SSW 0,0
23.10.2020 09:00:00 14,3 12,1 12,7 14,7 8 4 - - S 0,0
23.10.2020 08:00:00 12,2 11,7 - - 5 3 - - SSW 0,0
23.10.2020 07:00:00 11,7 11,5 - - 8 4 - - S 0,0
23.10.2020 06:00:00 10,6 10,5 - - 5 3 - - S 0,0
23.10.2020 05:00:00 9,7 9,6 - - 4 2 - - S 0,0
23.10.2020 04:00:00 9,5 9,2 - - 4 2 - - SSE 0,0
23.10.2020 03:00:00 10,9 10,8 - - 2 1 - - SE 0,0
23.10.2020 02:00:00 10,8 10,8 - - 2 1 - - SW 0,0
23.10.2020 01:00:00 9,7 9,6 - - 2 1 - - SE 0,0
23.10.2020 00:00:00 9,6 9,4 - - 2 1 - - SW 0,0
22.10.2020 23:00:00 9,1 8,6 - - 2 1 - - SW 0,0
22.10.2020 22:00:00 10,3 9,5 - - 2 1 - - S 0,0
22.10.2020 21:00:00 11,6 10,2 - - 4 2 - - SW 0,0
22.10.2020 20:00:00 11,8 10,7 - - 4 2 - - SSW 0,0
22.10.2020 19:00:00 11,9 11,1 - - 5 3 - - SSW 0,0
22.10.2020 18:00:00 11,1 10,0 - - 4 2 - - SSW 0,0
22.10.2020 17:00:00 12,5 9,7 - - 5 3 - - SSW 0,0
22.10.2020 16:00:00 14,9 10,3 - - 5 3 - - WSW 0,0
22.10.2020 15:00:00 - - - - 9 5 - - W 0,0
22.10.2020 14:00:00 - - - - 11 6 - - W 0,0
22.10.2020 13:00:00 - - - - 13 7 - - W 0,0
22.10.2020 12:00:00 - - - - 9 5 - - WSW 0,0
22.10.2020 11:00:00 - - - - 13 7 - - WSW 0,0
22.10.2020 10:00:00 - - - - 11 6 - - WSW 0,0
22.10.2020 09:00:00 14,0 10,9 13,0 14,7 11 6 - - SW 0,0
22.10.2020 08:00:00 13,0 10,6 - - 8 4 - - SSW 0,0
22.10.2020 07:00:00 11,6 10,1 - - 8 4 - - SSW 0,0
22.10.2020 06:00:00 11,8 10,1 - - 9 5 - - SSW 0,0
22.10.2020 05:00:00 11,9 10,2 - - 8 4 - - SSW 0,0
22.10.2020 04:00:00 11,8 10,1 - - 8 4 - - SW 0,0
22.10.2020 03:00:00 12,1 10,2 - - 8 4 - - SW 0,0
22.10.2020 02:00:00 12,4 10,3 - - 11 6 - - SW 0,0
22.10.2020 01:00:00 12,5 10,4 - - 11 6 - - SSW 0,0
22.10.2020 00:00:00 12,5 10,4 - - 9 5 - - SSW 0,0
21.10.2020 23:00:00 12,6 10,4 - - 8 4 - - SW 0,0
21.10.2020 22:00:00 13,7 11,4 - - 11 6 - - SW 0,0
21.10.2020 21:00:00 13,4 12,5 - - 8 4 - - SSW 0,0
21.10.2020 20:00:00 13,4 12,1 - - 8 4 - - SSW 0,0
21.10.2020 19:00:00 14,0 12,9 - - 8 4 - - S 0,2
21.10.2020 18:00:00 14,1 13,1 - - 8 4 - - SW 0,0

tt = Température de l'air
td = dewpoint
tt -20cm = Température de l'air -20cm
tt -100cm = Température de l'air -100cm
ff = Vitesse du vent
fx = gusts
dd = Direction du vent
rr = Quantités de précipitations

stations d'obs. à proximité